Time;durP1;ratioP1;P1;durP2;ratioP2;P2;SDS_P1;SDS_P2;PMS_P1;PMS_P2;Temp;Humidity;BMP_temperature;BMP_pressure;BME280_temperature;BME280_humidity;BME280_pressure;Samples;Min_cycle;Max_cycle;Signal;HPM_P1;HPM_P2
2021/05/03 00:00:22;0.00;0.00;0.62;0.00;0.00;0.62;1.47;1.13;;;24.60;23.20;;;;;;2269035;61;20358;-65
2021/05/03 00:02:49;0.00;0.00;0.62;0.00;0.00;0.62;1.40;1.03;;;24.60;23.20;;;;;;2268802;61;20365;-65
2021/05/03 00:05:22;0.00;0.00;0.62;0.00;0.00;0.62;1.50;1.07;;;24.60;23.20;;;;;;2268923;61;20369;-65
2021/05/03 00:07:49;0.00;0.00;0.62;0.00;0.00;0.62;2.13;0.93;;;24.50;23.20;;;;;;2268834;61;20350;-65
2021/05/03 00:10:16;0.00;0.00;0.62;0.00;0.00;0.62;1.50;1.00;;;24.50;23.10;;;;;;2268704;61;20357;-65
2021/05/03 00:12:43;0.00;0.00;0.62;0.00;0.00;0.62;1.60;1.17;;;24.50;23.10;;;;;;2269173;61;20365;-65
2021/05/03 00:15:13;0.00;0.00;0.62;0.00;0.00;0.62;1.77;1.30;;;24.50;23.10;;;;;;2268817;61;20396;-65
2021/05/03 00:17:40;0.00;0.00;0.62;0.00;0.00;0.62;1.60;1.23;;;24.50;23.10;;;;;;2268621;61;20365;-65
2021/05/03 00:20:08;0.00;0.00;0.62;0.00;0.00;0.62;2.13;1.20;;;24.50;23.10;;;;;;2269186;61;20349;-65
2021/05/03 00:22:35;0.00;0.00;0.62;0.00;0.00;0.62;1.67;1.00;;;24.40;23.10;;;;;;2268551;61;20402;-65
2021/05/03 00:25:02;0.00;0.00;0.62;0.00;0.00;0.62;2.10;1.20;;;24.40;23.10;;;;;;2268471;61;20374;-65
2021/05/03 00:27:28;0.00;0.00;0.62;0.00;0.00;0.62;1.47;1.20;;;24.40;23.00;;;;;;2269130;61;20674;-65
2021/05/03 00:29:55;0.00;0.00;0.62;0.00;0.00;0.62;1.40;1.10;;;24.40;23.10;;;;;;2268421;61;20381;-65
2021/05/03 00:32:22;0.00;0.00;0.62;0.00;0.00;0.62;1.30;0.90;;;24.40;23.60;;;;;;2268114;61;20366;-65
2021/05/03 00:34:49;0.00;0.00;0.62;0.00;0.00;0.62;1.60;1.00;;;24.40;23.00;;;;;;2268949;61;20768;-65
2021/05/03 00:37:16;0.00;0.00;0.62;0.00;0.00;0.62;1.50;1.00;;;24.30;22.90;;;;;;2268501;61;20399;-65
2021/05/03 00:39:42;0.00;0.00;0.62;0.00;0.00;0.62;2.13;1.00;;;24.30;22.90;;;;;;2268737;61;20373;-65
2021/05/03 00:42:09;0.00;0.00;0.62;0.00;0.00;0.62;2.97;1.20;;;24.30;22.90;;;;;;2268978;61;20361;-65
2021/05/03 00:44:35;0.00;0.00;0.62;0.00;0.00;0.62;1.60;1.07;;;24.30;22.90;;;;;;2268718;61;20728;-65
2021/05/03 00:47:03;0.00;0.00;0.62;0.00;0.00;0.62;2.70;1.17;;;24.30;22.90;;;;;;2268674;61;20358;-65
2021/05/03 00:49:31;0.00;0.00;0.62;0.00;0.00;0.62;2.13;1.40;;;24.30;22.90;;;;;;2269218;61;20435;-66
2021/05/03 00:51:58;0.00;0.00;0.62;0.00;0.00;0.62;1.93;1.17;;;24.20;22.80;;;;;;2268914;61;20358;-65
2021/05/03 00:54:26;0.00;0.00;0.62;0.00;0.00;0.62;1.70;1.00;;;24.20;22.80;;;;;;2268638;61;20576;-65
2021/05/03 00:56:52;0.00;0.00;0.62;0.00;0.00;0.62;1.90;0.97;;;24.20;22.80;;;;;;2269210;61;20435;-66
2021/05/03 00:59:19;0.00;0.00;0.62;0.00;0.00;0.62;1.57;0.97;;;24.20;22.80;;;;;;2268626;61;20357;-66
2021/05/03 01:01:46;0.00;0.00;0.62;0.00;0.00;0.62;1.67;1.00;;;24.20;22.80;;;;;;2268422;61;20406;-66
2021/05/03 01:04:13;0.00;0.00;0.62;0.00;0.00;0.62;1.60;1.20;;;24.20;22.80;;;;;;2269022;61;20384;-65
2021/05/03 01:06:40;0.00;0.00;0.62;0.00;0.00;0.62;1.53;1.10;;;24.20;22.80;;;;;;2268524;61;20350;-65
2021/05/03 01:09:07;0.00;0.00;0.62;0.00;0.00;0.62;2.50;1.00;;;24.10;22.70;;;;;;2268478;61;20417;-66
2021/05/03 01:11:35;0.00;0.00;0.62;0.00;0.00;0.62;1.60;1.30;;;24.10;22.70;;;;;;2268411;61;20350;-66
2021/05/03 01:14:02;0.00;0.00;0.62;0.00;0.00;0.62;1.70;1.00;;;24.10;22.70;;;;;;2268266;61;20366;-66
2021/05/03 01:16:29;0.00;0.00;0.62;0.00;0.00;0.62;1.50;1.10;;;24.10;23.20;;;;;;2268364;61;20426;-65
2021/05/03 01:18:56;0.00;0.00;0.62;0.00;0.00;0.62;2.13;1.17;;;24.10;22.60;;;;;;2269008;61;20346;-65
2021/05/03 01:21:24;0.00;0.00;0.62;0.00;0.00;0.62;1.40;1.00;;;24.10;22.60;;;;;;2268121;61;20731;-65
2021/05/03 01:23:50;0.00;0.00;0.62;0.00;0.00;0.62;2.50;1.30;;;24.10;22.70;;;;;;2268290;61;20583;-66
2021/05/03 01:26:17;0.00;0.00;0.62;0.00;0.00;0.62;3.10;1.47;;;24.00;22.60;;;;;;2268684;61;20364;-65
2021/05/03 01:28:44;0.00;0.00;0.62;0.00;0.00;0.62;2.80;1.20;;;24.10;22.60;;;;;;2268586;61;20461;-65
2021/05/03 01:31:10;0.00;0.00;0.62;0.00;0.00;0.62;1.30;0.80;;;24.00;22.60;;;;;;2268397;61;20393;-65
2021/05/03 01:33:37;0.00;0.00;0.62;0.00;0.00;0.62;1.83;0.90;;;24.00;22.60;;;;;;2268708;61;20385;-66
2021/05/03 01:36:04;0.00;0.00;0.62;0.00;0.00;0.62;1.27;0.90;;;24.00;22.60;;;;;;2268814;61;20424;-65
2021/05/03 01:38:32;0.00;0.00;0.62;0.00;0.00;0.62;1.33;0.83;;;24.00;22.60;;;;;;2268542;61;20354;-65
2021/05/03 01:40:59;0.00;0.00;0.62;0.00;0.00;0.62;2.20;1.20;;;24.00;22.60;;;;;;2268728;61;20703;-66
2021/05/03 01:43:27;0.00;0.00;0.62;0.00;0.00;0.62;1.33;1.10;;;23.90;22.50;;;;;;2268793;61;20419;-65
2021/05/03 01:45:56;0.00;0.00;0.62;0.00;0.00;0.62;1.40;0.97;;;24.00;22.60;;;;;;2267690;61;20357;-65
2021/05/03 01:48:25;0.00;0.00;0.62;0.00;0.00;0.62;1.60;1.10;;;23.90;22.50;;;;;;2268210;61;20382;-65
2021/05/03 01:50:54;0.00;0.00;0.62;0.00;0.00;0.62;1.80;1.20;;;23.90;22.50;;;;;;2268600;61;20622;-65
2021/05/03 01:53:23;0.00;0.00;0.62;0.00;0.00;0.62;1.70;1.10;;;23.90;22.50;;;;;;2268319;61;20429;-65
2021/05/03 01:55:54;0.00;0.00;0.62;0.00;0.00;0.62;2.30;1.10;;;23.90;22.50;;;;;;2268704;61;20358;-65
2021/05/03 01:58:23;0.00;0.00;0.62;0.00;0.00;0.62;1.50;1.00;;;23.90;22.50;;;;;;2268616;61;20477;-65
2021/05/03 02:00:51;0.00;0.00;0.62;0.00;0.00;0.62;2.10;0.90;;;23.90;22.50;;;;;;2268184;61;20433;-65
2021/05/03 02:03:20;0.00;0.00;0.62;0.00;0.00;0.62;2.77;1.47;;;23.80;22.40;;;;;;2268741;61;20614;-65
2021/05/03 02:05:47;0.00;0.00;0.62;0.00;0.00;0.62;1.77;1.30;;;23.80;22.40;;;;;;2268357;61;20353;-65
2021/05/03 02:08:13;0.00;0.00;0.62;0.00;0.00;0.62;3.30;1.13;;;23.80;22.50;;;;;;2268265;61;20378;-65
2021/05/03 02:10:40;0.00;0.00;0.62;0.00;0.00;0.62;1.50;1.00;;;23.80;22.50;;;;;;2268744;61;20603;-65
2021/05/03 02:13:09;0.00;0.00;0.62;0.00;0.00;0.62;2.23;1.20;;;23.80;22.50;;;;;;2268546;61;20349;-65
2021/05/03 02:15:36;0.00;0.00;0.62;0.00;0.00;0.62;2.23;1.27;;;23.80;22.40;;;;;;2268206;61;20358;-65
2021/05/03 02:18:04;0.00;0.00;0.62;0.00;0.00;0.62;1.47;1.00;;;23.80;22.40;;;;;;2268769;61;20729;-65
2021/05/03 02:20:32;0.00;0.00;0.62;0.00;0.00;0.62;2.03;0.97;;;23.80;22.40;;;;;;2268393;61;20361;-65
2021/05/03 02:22:59;0.00;0.00;0.62;0.00;0.00;0.62;1.50;0.90;;;23.70;22.40;;;;;;2268093;61;20428;-65
2021/05/03 02:25:26;0.00;0.00;0.62;0.00;0.00;0.62;1.40;1.13;;;23.70;22.40;;;;;;2268539;61;20412;-65
2021/05/03 02:27:53;0.00;0.00;0.62;0.00;0.00;0.62;2.13;1.00;;;23.70;22.40;;;;;;2268485;61;20442;-65
2021/05/03 02:30:21;0.00;0.00;0.62;0.00;0.00;0.62;1.67;1.10;;;23.70;22.40;;;;;;2268248;61;20354;-65
2021/05/03 02:32:48;0.00;0.00;0.62;0.00;0.00;0.62;2.33;1.10;;;23.70;22.40;;;;;;2268576;61;20569;-65
2021/05/03 02:35:18;0.00;0.00;0.62;0.00;0.00;0.62;1.33;1.00;;;23.70;22.40;;;;;;2268604;61;20639;-65
2021/05/03 02:37:48;0.00;0.00;0.62;0.00;0.00;0.62;1.90;1.20;;;23.60;22.30;;;;;;2267522;61;20396;-65
2021/05/03 02:40:17;0.00;0.00;0.62;0.00;0.00;0.62;1.47;0.90;;;23.70;22.40;;;;;;2268693;61;20492;-65
2021/05/03 02:42:46;0.00;0.00;0.62;0.00;0.00;0.62;2.00;1.10;;;23.60;22.30;;;;;;2268476;61;20364;-65
2021/05/03 02:45:14;0.00;0.00;0.62;0.00;0.00;0.62;2.00;1.00;;;23.60;22.30;;;;;;2267985;61;20370;-65
2021/05/03 02:47:42;0.00;0.00;0.62;0.00;0.00;0.62;1.60;1.07;;;23.60;22.30;;;;;;2269292;61;20354;-65
2021/05/03 02:50:11;0.00;0.00;0.62;0.00;0.00;0.62;1.50;0.97;;;23.60;22.30;;;;;;2268720;61;20377;-65
2021/05/03 02:52:38;0.00;0.00;0.62;0.00;0.00;0.62;1.47;1.03;;;23.60;22.30;;;;;;2268653;61;20440;-65
2021/05/03 02:55:08;0.00;0.00;0.62;0.00;0.00;0.62;2.43;1.23;;;23.50;22.30;;;;;;2269348;61;20591;-65
2021/05/03 02:57:35;0.00;0.00;0.62;0.00;0.00;0.62;1.67;1.17;;;23.50;22.20;;;;;;2268999;61;20365;-65
2021/05/03 03:00:03;0.00;0.00;0.62;0.00;0.00;0.62;3.13;1.10;;;23.50;22.20;;;;;;2268317;61;20356;-65
2021/05/03 03:02:30;0.00;0.00;0.62;0.00;0.00;0.62;1.87;0.93;;;23.50;22.20;;;;;;2269324;61;20569;-65
2021/05/03 03:04:57;0.00;0.00;0.62;0.00;0.00;0.62;2.13;1.53;;;23.50;22.20;;;;;;2268910;61;20503;-65
2021/05/03 03:07:24;0.00;0.00;0.62;0.00;0.00;0.62;2.13;1.20;;;23.50;22.20;;;;;;2268674;61;20380;-65
2021/05/03 03:09:51;0.00;0.00;0.62;0.00;0.00;0.62;1.30;0.90;;;23.50;22.20;;;;;;2269255;61;20585;-66
2021/05/03 03:12:17;0.00;0.00;0.62;0.00;0.00;0.62;3.00;0.87;;;23.50;22.20;;;;;;2269020;61;20435;-65
2021/05/03 03:14:44;0.00;0.00;0.62;0.00;0.00;0.62;1.40;1.00;;;23.40;22.20;;;;;;2268527;61;20466;-65
2021/05/03 03:17:11;0.00;0.00;0.62;0.00;0.00;0.62;2.47;1.10;;;23.40;22.10;;;;;;2269389;61;20358;-65
2021/05/03 03:19:38;0.00;0.00;0.62;0.00;0.00;0.62;1.50;1.03;;;23.40;22.10;;;;;;2269284;61;20495;-65
2021/05/03 03:22:06;0.00;0.00;0.62;0.00;0.00;0.62;1.37;0.90;;;23.40;22.20;;;;;;2268000;61;20404;-65
2021/05/03 03:24:33;0.00;0.00;0.62;0.00;0.00;0.62;2.13;1.10;;;23.40;22.10;;;;;;2269262;61;20378;-65
2021/05/03 03:27:00;0.00;0.00;0.62;0.00;0.00;0.62;2.30;1.37;;;23.40;22.30;;;;;;2268929;61;20455;-66
2021/05/03 03:29:27;0.00;0.00;0.62;0.00;0.00;0.62;1.50;1.03;;;23.30;22.00;;;;;;2268773;61;20397;-66
2021/05/03 03:31:53;0.00;0.00;0.62;0.00;0.00;0.62;2.40;1.30;;;23.40;22.10;;;;;;2269039;61;20354;-65
2021/05/03 03:34:20;0.00;0.00;0.62;0.00;0.00;0.62;1.77;1.33;;;23.30;22.00;;;;;;2269294;61;20381;-65
2021/05/03 03:36:47;0.00;0.00;0.62;0.00;0.00;0.62;1.23;0.87;;;23.30;22.00;;;;;;2268420;61;20412;-66
2021/05/03 03:39:15;0.00;0.00;0.62;0.00;0.00;0.62;3.00;1.10;;;23.30;22.10;;;;;;2269286;61;20353;-66
2021/05/03 03:41:41;0.00;0.00;0.62;0.00;0.00;0.62;2.10;1.30;;;23.30;22.10;;;;;;2268975;61;20361;-65
2021/05/03 03:44:09;0.00;0.00;0.62;0.00;0.00;0.62;2.10;1.00;;;23.30;22.10;;;;;;2268499;61;20378;-66
2021/05/03 03:46:36;0.00;0.00;0.62;0.00;0.00;0.62;2.53;1.27;;;23.30;22.10;;;;;;2269035;61;20392;-65
2021/05/03 03:49:04;0.00;0.00;0.62;0.00;0.00;0.62;2.17;1.10;;;23.30;22.10;;;;;;2269118;61;20384;-65
2021/05/03 03:51:30;0.00;0.00;0.62;0.00;0.00;0.62;3.07;1.40;;;23.30;22.10;;;;;;2268408;61;20446;-65
2021/05/03 03:53:57;0.00;0.00;0.62;0.00;0.00;0.62;1.50;1.20;;;23.20;22.00;;;;;;2269184;61;20377;-65
2021/05/03 03:56:27;0.00;0.00;0.62;0.00;0.00;0.62;2.37;1.33;;;23.20;22.00;;;;;;2268976;61;20353;-65
2021/05/03 03:58:54;0.00;0.00;0.62;0.00;0.00;0.62;1.40;1.00;;;23.20;22.00;;;;;;2268287;61;20354;-65
2021/05/03 04:01:22;0.00;0.00;0.62;0.00;0.00;0.62;1.70;1.20;;;23.20;22.00;;;;;;2269012;61;20364;-65
2021/05/03 04:03:54;0.00;0.00;0.62;0.00;0.00;0.62;2.77;1.20;;;23.20;22.00;;;;;;2269049;61;20718;-65
2021/05/03 04:09:09;0.00;0.00;0.62;0.00;0.00;0.62;2.60;1.00;;;23.10;22.00;;;;;;2269073;61;20388;-66
2021/05/03 04:11:57;0.00;0.00;0.62;0.00;0.00;0.62;1.50;1.20;;;23.10;22.00;;;;;;2268730;61;20353;-66
2021/05/03 04:22:59;0.00;0.00;0.62;0.00;0.00;0.62;1.53;1.00;;;23.10;22.00;;;;;;2268750;61;20350;-65
2021/05/03 04:28:19;0.00;0.00;0.62;0.00;0.00;0.62;2.00;1.30;;;23.10;22.00;;;;;;2267988;61;20365;-65
2021/05/03 04:30:46;0.00;0.00;0.62;0.00;0.00;0.62;2.70;1.10;;;23.00;21.90;;;;;;2269051;61;20361;-65
2021/05/03 04:33:12;0.00;0.00;0.62;0.00;0.00;0.62;1.40;0.90;;;23.00;21.90;;;;;;2268993;61;20369;-65
2021/05/03 04:35:39;0.00;0.00;0.62;0.00;0.00;0.62;2.07;1.30;;;23.10;22.00;;;;;;2268202;61;20373;-67
2021/05/03 04:38:05;0.00;0.00;0.62;0.00;0.00;0.62;2.17;1.40;;;23.10;22.00;;;;;;2269135;61;20361;-66
2021/05/03 04:40:32;0.00;0.00;0.62;0.00;0.00;0.62;1.77;1.00;;;23.10;22.10;;;;;;2268876;61;20354;-67
2021/05/03 04:42:59;0.00;0.00;0.62;0.00;0.00;0.62;4.00;1.10;;;23.10;22.10;;;;;;2268368;61;20358;-65
2021/05/03 04:45:26;0.00;0.00;0.62;0.00;0.00;0.62;1.57;1.20;;;23.00;22.00;;;;;;2268839;61;20374;-67
2021/05/03 04:47:53;0.00;0.00;0.62;0.00;0.00;0.62;2.40;1.10;;;23.00;22.10;;;;;;2268944;61;20604;-67
2021/05/03 04:50:20;0.00;0.00;0.62;0.00;0.00;0.62;3.23;1.20;;;23.10;22.20;;;;;;2268626;61;20381;-67
2021/05/03 04:52:47;0.00;0.00;0.62;0.00;0.00;0.62;3.97;1.20;;;23.10;22.20;;;;;;2268813;61;20585;-66
2021/05/03 04:55:14;0.00;0.00;0.62;0.00;0.00;0.62;2.27;1.10;;;23.10;22.20;;;;;;2269159;61;20612;-67
2021/05/03 04:57:40;0.00;0.00;0.62;0.00;0.00;0.62;1.90;1.20;;;23.10;22.30;;;;;;2268420;61;20352;-68
2021/05/03 05:00:09;0.00;0.00;0.62;0.00;0.00;0.62;2.33;0.90;;;23.10;22.30;;;;;;2269026;61;20350;-67
2021/05/03 05:02:36;0.00;0.00;0.62;0.00;0.00;0.62;1.70;1.10;;;23.10;22.30;;;;;;2268928;61;20354;-67
2021/05/03 05:05:06;0.00;0.00;0.62;0.00;0.00;0.62;1.80;1.13;;;23.10;22.30;;;;;;2268049;61;20381;-66
2021/05/03 05:07:33;0.00;0.00;0.62;0.00;0.00;0.62;1.60;1.07;;;23.10;22.40;;;;;;2268763;61;20349;-66
2021/05/03 05:10:00;0.00;0.00;0.62;0.00;0.00;0.62;2.07;1.13;;;23.10;22.40;;;;;;2268783;61;20393;-67
2021/05/03 05:12:26;0.00;0.00;0.62;0.00;0.00;0.62;1.50;1.10;;;23.10;22.40;;;;;;2268013;61;20361;-66
2021/05/03 05:14:53;0.00;0.00;0.62;0.00;0.00;0.62;3.03;1.20;;;23.00;22.80;;;;;;2268826;61;20702;-66
2021/05/03 05:17:19;0.00;0.00;0.62;0.00;0.00;0.62;3.00;1.33;;;23.10;22.40;;;;;;2268865;61;20354;-66
2021/05/03 05:19:48;0.00;0.00;0.62;0.00;0.00;0.62;2.17;1.37;;;23.10;22.40;;;;;;2268004;61;20399;-66
2021/05/03 05:22:15;0.00;0.00;0.62;0.00;0.00;0.62;1.67;1.20;;;23.10;22.50;;;;;;2268805;61;20361;-66
2021/05/03 05:24:42;0.00;0.00;0.62;0.00;0.00;0.62;2.60;1.30;;;23.00;22.50;;;;;;2268858;61;20366;-66
2021/05/03 05:27:09;0.00;0.00;0.62;0.00;0.00;0.62;3.10;1.60;;;23.10;22.50;;;;;;2267858;61;20342;-66
2021/05/03 05:29:35;0.00;0.00;0.62;0.00;0.00;0.62;2.00;1.40;;;23.10;22.60;;;;;;2268819;61;20572;-65
2021/05/03 05:32:02;0.00;0.00;0.62;0.00;0.00;0.62;1.80;1.10;;;23.10;22.60;;;;;;2268672;61;20369;-64
2021/05/03 05:34:29;0.00;0.00;0.62;0.00;0.00;0.62;2.47;2.10;;;23.10;22.50;;;;;;2268281;61;20380;-64
2021/05/03 05:36:57;0.00;0.00;0.62;0.00;0.00;0.62;2.07;1.50;;;23.10;22.50;;;;;;2268827;61;20360;-65
2021/05/03 05:39:23;0.00;0.00;0.62;0.00;0.00;0.62;3.47;2.17;;;23.10;22.50;;;;;;2268865;61;20434;-66
2021/05/03 05:41:50;0.00;0.00;0.62;0.00;0.00;0.62;1.80;1.43;;;23.10;22.50;;;;;;2268279;61;20575;-65
2021/05/03 05:44:17;0.00;0.00;0.62;0.00;0.00;0.62;2.50;1.80;;;23.10;22.60;;;;;;2268703;61;20621;-66
2021/05/03 05:46:44;0.00;0.00;0.62;0.00;0.00;0.62;3.07;1.63;;;23.10;22.80;;;;;;2268811;61;20478;-66
2021/05/03 05:49:11;0.00;0.00;0.62;0.00;0.00;0.62;2.83;1.73;;;23.10;22.60;;;;;;2268377;61;20389;-66
2021/05/03 05:51:38;0.00;0.00;0.62;0.00;0.00;0.62;2.87;1.80;;;23.10;22.60;;;;;;2268589;61;20354;-66
2021/05/03 05:54:07;0.00;0.00;0.62;0.00;0.00;0.62;3.43;1.80;;;23.10;22.60;;;;;;2268660;61;20373;-65
2021/05/03 05:56:34;0.00;0.00;0.62;0.00;0.00;0.62;1.77;1.40;;;23.10;22.50;;;;;;2268358;61;20358;-66
2021/05/03 05:59:01;0.00;0.00;0.62;0.00;0.00;0.62;1.60;1.20;;;23.10;22.60;;;;;;2268435;61;20702;-65
2021/05/03 06:01:27;0.00;0.00;0.62;0.00;0.00;0.62;2.47;1.63;;;23.10;22.50;;;;;;2268573;61;20698;-66
2021/05/03 06:03:54;0.00;0.00;0.62;0.00;0.00;0.62;1.90;1.40;;;23.10;23.00;;;;;;2268250;61;20420;-66
2021/05/03 06:06:21;0.00;0.00;0.62;0.00;0.00;0.62;3.20;1.93;;;23.20;22.50;;;;;;2268315;61;20349;-66
2021/05/03 06:08:48;0.00;0.00;0.62;0.00;0.00;0.62;2.23;1.67;;;23.20;22.50;;;;;;2268685;61;20378;-66
2021/05/03 06:11:15;0.00;0.00;0.62;0.00;0.00;0.62;2.27;1.43;;;23.10;22.50;;;;;;2268482;61;20356;-66
2021/05/03 06:13:42;0.00;0.00;0.62;0.00;0.00;0.62;2.10;1.53;;;23.10;22.50;;;;;;2268555;61;20383;-65
2021/05/03 06:16:09;0.00;0.00;0.62;0.00;0.00;0.62;1.70;1.47;;;23.10;22.50;;;;;;2268783;61;20444;-66
2021/05/03 06:18:36;0.00;0.00;0.62;0.00;0.00;0.62;2.70;1.47;;;23.20;22.50;;;;;;2268506;61;20357;-66
2021/05/03 06:21:03;0.00;0.00;0.62;0.00;0.00;0.62;2.20;1.70;;;23.20;22.50;;;;;;2268453;61;20350;-66
2021/05/03 06:23:30;0.00;0.00;0.62;0.00;0.00;0.62;1.97;1.20;;;23.20;22.50;;;;;;2268285;61;20505;-66
2021/05/03 06:25:57;0.00;0.00;0.62;0.00;0.00;0.62;1.80;1.30;;;23.20;22.50;;;;;;2267868;61;20354;-65
2021/05/03 06:28:26;0.00;0.00;0.62;0.00;0.00;0.62;2.37;1.70;;;23.20;22.50;;;;;;2268226;61;20732;-65
2021/05/03 06:30:57;0.00;0.00;0.62;0.00;0.00;0.62;2.23;1.10;;;23.20;22.50;;;;;;2268823;61;20423;-65
2021/05/03 06:33:25;0.00;0.00;0.62;0.00;0.00;0.62;1.60;1.30;;;23.20;22.50;;;;;;2268479;61;20365;-65
2021/05/03 06:35:52;0.00;0.00;0.62;0.00;0.00;0.62;1.83;1.37;;;23.20;22.50;;;;;;2267637;61;20590;-66
2021/05/03 06:38:21;0.00;0.00;0.62;0.00;0.00;0.62;2.20;1.60;;;23.20;22.50;;;;;;2268819;61;20572;-66
2021/05/03 06:40:49;0.00;0.00;0.62;0.00;0.00;0.62;1.70;1.13;;;23.20;22.50;;;;;;2268361;61;20473;-65
2021/05/03 06:43:16;0.00;0.00;0.62;0.00;0.00;0.62;1.50;1.20;;;23.20;22.50;;;;;;2268301;61;20694;-66
2021/05/03 06:45:44;0.00;0.00;0.62;0.00;0.00;0.62;1.50;1.20;;;23.20;22.50;;;;;;2268661;61;20358;-65
2021/05/03 06:48:12;0.00;0.00;0.62;0.00;0.00;0.62;1.60;1.37;;;23.20;22.50;;;;;;2268354;61;20399;-65
2021/05/03 06:50:43;0.00;0.00;0.62;0.00;0.00;0.62;1.83;1.10;;;23.20;22.50;;;;;;2268277;61;20447;-65
2021/05/03 06:53:10;0.00;0.00;0.62;0.00;0.00;0.62;1.93;1.40;;;23.20;22.50;;;;;;2268690;61;20350;-65
2021/05/03 06:55:37;0.00;0.00;0.62;0.00;0.00;0.62;1.40;0.93;;;23.30;22.50;;;;;;2268347;61;20441;-66
2021/05/03 06:58:03;0.00;0.00;0.62;0.00;0.00;0.62;1.50;1.07;;;23.20;22.50;;;;;;2268206;61;20419;-65
2021/05/03 07:00:30;0.00;0.00;0.62;0.00;0.00;0.62;3.00;1.70;;;23.20;22.50;;;;;;2268683;61;20583;-66
2021/05/03 07:02:58;0.00;0.00;0.62;0.00;0.00;0.62;2.17;1.30;;;23.30;22.60;;;;;;2268474;61;20361;-66
2021/05/03 07:05:27;0.00;0.00;0.62;0.00;0.00;0.62;1.30;1.20;;;23.20;22.50;;;;;;2268208;61;20407;-66
2021/05/03 07:07:53;0.00;0.00;0.62;0.00;0.00;0.62;1.70;1.17;;;23.20;22.40;;;;;;2268138;61;20357;-66
2021/05/03 07:10:20;0.00;0.00;0.62;0.00;0.00;0.62;2.50;1.10;;;23.30;22.50;;;;;;2268387;61;20507;-66
2021/05/03 07:12:48;0.00;0.00;0.62;0.00;0.00;0.62;1.60;1.20;;;23.30;22.50;;;;;;2268258;61;20698;-65
2021/05/03 07:15:16;0.00;0.00;0.62;0.00;0.00;0.62;1.30;1.07;;;23.20;22.50;;;;;;2268623;61;20377;-66
2021/05/03 07:17:43;0.00;0.00;0.62;0.00;0.00;0.62;1.60;1.00;;;23.30;22.50;;;;;;2268364;61;20357;-66
2021/05/03 07:20:13;0.00;0.00;0.62;0.00;0.00;0.62;1.70;1.30;;;23.20;22.40;;;;;;2268317;61;20569;-65
2021/05/03 07:22:40;0.00;0.00;0.62;0.00;0.00;0.62;1.40;0.93;;;23.30;22.50;;;;;;2267916;61;20376;-65
2021/05/03 07:25:10;0.00;0.00;0.62;0.00;0.00;0.62;1.53;1.20;;;23.30;22.50;;;;;;2267868;61;20607;-66
2021/05/03 07:27:37;0.00;0.00;0.62;0.00;0.00;0.62;1.60;1.00;;;23.30;22.50;;;;;;2268044;61;20362;-66
2021/05/03 07:30:06;0.00;0.00;0.62;0.00;0.00;0.62;1.60;1.10;;;23.30;22.50;;;;;;2268476;61;20593;-66
2021/05/03 07:32:33;0.00;0.00;0.62;0.00;0.00;0.62;1.50;0.97;;;23.20;22.90;;;;;;2268897;61;20373;-66
2021/05/03 07:34:59;0.00;0.00;0.62;0.00;0.00;0.62;1.40;1.10;;;23.20;22.40;;;;;;2268332;61;20369;-66
2021/05/03 07:37:27;0.00;0.00;0.62;0.00;0.00;0.62;1.30;1.00;;;23.20;22.40;;;;;;2268760;61;20357;-66
2021/05/03 07:39:54;0.00;0.00;0.62;0.00;0.00;0.62;1.60;0.90;;;23.20;22.40;;;;;;2269033;61;20349;-66
2021/05/03 07:42:20;0.00;0.00;0.62;0.00;0.00;0.62;1.30;0.83;;;23.20;22.40;;;;;;2268846;61;20499;-66
2021/05/03 07:44:47;0.00;0.00;0.62;0.00;0.00;0.62;1.43;1.00;;;23.30;22.50;;;;;;2268666;61;20376;-66
2021/05/03 07:47:14;0.00;0.00;0.62;0.00;0.00;0.62;2.50;1.10;;;23.20;22.50;;;;;;2268996;61;20350;-66
2021/05/03 07:49:40;0.00;0.00;0.62;0.00;0.00;0.62;1.30;1.00;;;23.30;22.50;;;;;;2268718;61;20380;-66
2021/05/03 07:52:07;0.00;0.00;0.62;0.00;0.00;0.62;1.80;1.00;;;23.20;22.40;;;;;;2269178;61;20365;-66
2021/05/03 07:54:35;0.00;0.00;0.62;0.00;0.00;0.62;1.30;0.90;;;23.20;22.40;;;;;;2268765;61;20384;-66
2021/05/03 07:57:02;0.00;0.00;0.62;0.00;0.00;0.62;2.13;1.00;;;23.20;22.40;;;;;;2268469;61;20510;-66
2021/05/03 07:59:30;0.00;0.00;0.62;0.00;0.00;0.62;1.40;0.90;;;23.30;22.50;;;;;;2269300;61;20596;-65
2021/05/03 08:01:56;0.00;0.00;0.62;0.00;0.00;0.62;1.30;1.00;;;23.20;22.40;;;;;;2268853;61;20380;-65
2021/05/03 08:04:23;0.00;0.00;0.62;0.00;0.00;0.62;1.33;0.93;;;23.20;22.40;;;;;;2268755;61;20377;-65
2021/05/03 08:06:53;0.00;0.00;0.62;0.00;0.00;0.62;2.03;1.00;;;23.30;22.50;;;;;;2269009;61;20356;-65
2021/05/03 08:09:20;0.00;0.00;0.62;0.00;0.00;0.62;1.40;0.90;;;23.30;22.60;;;;;;2268822;61;20378;-65
2021/05/03 08:11:47;0.00;0.00;0.62;0.00;0.00;0.62;1.60;1.10;;;23.30;22.60;;;;;;2268702;61;20395;-65
2021/05/03 08:14:17;0.00;0.00;0.62;0.00;0.00;0.62;2.00;1.30;;;23.30;22.50;;;;;;2269125;61;20378;-66
2021/05/03 08:16:47;0.00;0.00;0.62;0.00;0.00;0.62;1.50;0.97;;;23.30;22.50;;;;;;2268376;61;20508;-65
2021/05/03 08:19:14;0.00;0.00;0.62;0.00;0.00;0.62;1.70;1.00;;;23.30;22.60;;;;;;2268809;61;20358;-65
2021/05/03 08:21:41;0.00;0.00;0.62;0.00;0.00;0.62;1.43;0.90;;;23.30;22.60;;;;;;2269112;61;20397;-66
2021/05/03 08:24:08;0.00;0.00;0.62;0.00;0.00;0.62;1.83;0.90;;;23.30;22.60;;;;;;2268953;61;20388;-66
2021/05/03 08:26:34;0.00;0.00;0.62;0.00;0.00;0.62;1.63;1.10;;;23.30;22.60;;;;;;2268504;61;20354;-64
2021/05/03 08:29:02;0.00;0.00;0.62;0.00;0.00;0.62;1.30;0.80;;;23.30;22.60;;;;;;2269200;61;20370;-66
2021/05/03 08:31:30;0.00;0.00;0.62;0.00;0.00;0.62;1.57;0.93;;;23.30;22.60;;;;;;2268730;61;20449;-66
2021/05/03 08:33:57;0.00;0.00;0.62;0.00;0.00;0.62;1.50;0.80;;;23.40;22.70;;;;;;2268655;61;20492;-65
2021/05/03 08:36:23;0.00;0.00;0.62;0.00;0.00;0.62;1.53;0.87;;;23.40;22.70;;;;;;2269024;61;20361;-64
2021/05/03 08:38:50;0.00;0.00;0.62;0.00;0.00;0.62;1.40;1.00;;;23.40;22.70;;;;;;2268894;61;20353;-66
2021/05/03 08:41:17;0.00;0.00;0.62;0.00;0.00;0.62;1.40;0.90;;;23.40;23.20;;;;;;2268632;61;20357;-65
2021/05/03 08:43:46;0.00;0.00;0.62;0.00;0.00;0.62;1.43;0.90;;;23.40;22.60;;;;;;2268883;61;20445;-66
2021/05/03 08:46:26;0.00;0.00;0.62;0.00;0.00;0.62;1.53;0.80;;;23.40;22.60;;;;;;2268705;61;20350;-66
2021/05/03 08:48:59;0.00;0.00;0.62;0.00;0.00;0.62;1.40;0.80;;;23.40;22.60;;;;;;2268438;61;20373;-65
2021/05/03 08:51:44;0.00;0.00;0.62;0.00;0.00;0.62;1.30;0.90;;;23.40;22.60;;;;;;2269053;61;20362;-66
2021/05/03 08:54:36;0.00;0.00;0.62;0.00;0.00;0.62;1.83;0.90;;;23.50;22.70;;;;;;2268032;61;20410;-66
2021/05/03 08:57:05;0.00;0.00;0.62;0.00;0.00;0.62;1.30;0.90;;;23.50;22.70;;;;;;2269086;61;20346;-66
2021/05/03 08:59:35;0.00;0.00;0.62;0.00;0.00;0.62;3.20;0.97;;;23.50;22.70;;;;;;2268980;61;20350;-66
2021/05/03 09:02:04;0.00;0.00;0.62;0.00;0.00;0.62;1.40;0.80;;;23.50;22.70;;;;;;2268238;61;20354;-66
2021/05/03 09:04:31;0.00;0.00;0.62;0.00;0.00;0.62;1.40;0.90;;;23.50;22.60;;;;;;2268996;61;20378;-66
2021/05/03 09:07:11;0.00;0.00;0.62;0.00;0.00;0.62;1.20;0.80;;;23.60;22.70;;;;;;2268770;61;20368;-66
2021/05/03 09:09:39;0.00;0.00;0.62;0.00;0.00;0.62;1.73;1.20;;;23.50;22.60;;;;;;2268202;61;20381;-66
2021/05/03 09:12:09;0.00;0.00;0.62;0.00;0.00;0.62;1.20;0.70;;;23.60;22.60;;;;;;2268949;61;20381;-66
2021/05/03 09:14:48;0.00;0.00;0.62;0.00;0.00;0.62;1.53;0.90;;;23.60;22.60;;;;;;2269055;61;20597;-66
2021/05/03 09:17:23;0.00;0.00;0.62;0.00;0.00;0.62;1.40;0.90;;;23.60;22.60;;;;;;2268215;61;20353;-66
2021/05/03 09:19:50;0.00;0.00;0.62;0.00;0.00;0.62;1.27;0.70;;;23.60;22.60;;;;;;2269021;61;20366;-66
2021/05/03 09:22:29;0.00;0.00;0.62;0.00;0.00;0.62;1.57;1.00;;;23.60;22.60;;;;;;2268950;61;20605;-66
2021/05/03 09:25:26;0.00;0.00;0.62;0.00;0.00;0.62;2.07;0.90;;;23.60;22.50;;;;;;2267655;61;20447;-66
2021/05/03 09:28:08;0.00;0.00;0.62;0.00;0.00;0.62;1.50;1.00;;;23.70;22.60;;;;;;2268984;61;20356;-67
2021/05/03 09:30:43;0.00;0.00;0.62;0.00;0.00;0.62;1.50;0.97;;;23.70;22.60;;;;;;2268742;61;20424;-67
2021/05/03 09:33:18;0.00;0.00;0.62;0.00;0.00;0.62;1.50;0.90;;;23.70;22.50;;;;;;2268477;61;20369;-65
2021/05/03 09:35:48;0.00;0.00;0.62;0.00;0.00;0.62;1.77;1.00;;;23.70;22.50;;;;;;2268966;61;20422;-66
2021/05/03 09:38:37;0.00;0.00;0.62;0.00;0.00;0.62;1.43;0.93;;;23.70;22.50;;;;;;2268781;61;20350;-66
2021/05/03 09:41:13;0.00;0.00;0.62;0.00;0.00;0.62;1.40;0.80;;;23.70;22.50;;;;;;2271579;61;20369;-65
2021/05/03 09:43:42;0.00;0.00;0.62;0.00;0.00;0.62;1.20;0.73;;;23.80;22.60;;;;;;2268979;61;20370;-66
2021/05/03 09:46:30;0.00;0.00;0.62;0.00;0.00;0.62;1.20;0.73;;;23.80;22.60;;;;;;2267476;61;20444;-66
2021/05/03 09:49:00;0.00;0.00;0.62;0.00;0.00;0.62;1.40;0.90;;;23.80;22.60;;;;;;2268979;61;20667;-65
2021/05/03 09:51:34;0.00;0.00;0.62;0.00;0.00;0.62;1.37;0.87;;;23.80;22.50;;;;;;2268835;61;20362;-66
2021/05/03 09:54:11;0.00;0.00;0.62;0.00;0.00;0.62;1.20;0.70;;;23.80;22.50;;;;;;2267965;61;20370;-65
2021/05/03 09:56:59;0.00;0.00;0.62;0.00;0.00;0.62;1.30;0.90;;;23.90;22.60;;;;;;2268931;61;20363;-66
2021/05/03 09:59:33;0.00;0.00;0.62;0.00;0.00;0.62;1.43;0.90;;;23.90;22.60;;;;;;2268385;61;20740;-66